BERRYESSA (BER)

Elevation: 456' · PUTAH CR basin · Operator: US Bureau of Reclamation

Provisional data, subject to change.
Query executed Wednesday at 2:36:49

Select a sensor type for a plot of data.
Note: Reservoir Flows are daily averages.

Earlier

Date RES ELE    STORAGE    RES CHG    OUTFLOW    INFLOW    PPT INC   
 FEET   AF   AF   CFS   CFS   INCHES  
11/08/2016 399.34 866576 0 69 92 0.00
11/09/2016 399.35 866723 147 53 155 0.00
11/10/2016 399.34 866576 -147 50 -1 0.00
11/11/2016 399.35 866723 147 47 149 0.00
11/12/2016 399.34 866576 -147 45 -10 0.00
11/13/2016 399.36 866870 294 52 233 0.00
11/14/2016 399.37 867017 147 80 196 0.00
11/15/2016 399.33 866429 -588 154 -123 0.00
11/16/2016 399.31 866135 -294 170 45 0.00
11/17/2016 399.25 865253 -882 155 -253 0.00
11/18/2016 399.23 864959 -294 165 45 0.00
11/19/2016 399.31 866135 1176 151 758 0.12
11/20/2016 399.45 868194 2059 145 1188 0.49
11/21/2016 399.48 868635 441 145 367 0.20
11/22/2016 399.54 869519 884 145 600 0.00
11/23/2016 399.52 869224 -295 106 -34 0.14
11/24/2016 399.55 869666 442 80 317 0.00
11/25/2016 399.54 869519 -147 80 11 0.00
11/26/2016 399.58 870108 589 80 391 0.04
11/27/2016 399.56 869813 -295 80 -55 0.19
11/28/2016 399.65 871140 1327 80 758 0.04
11/29/2016 399.65 871140 0 80 94 0.00
11/30/2016 399.65 871140 0 80 122 0.00
12/01/2016 399.66 871287 147 80 173 0.00
12/02/2016 399.61 870550 -737 80 -243 0.00
12/03/2016 399.63 870845 295 80 287 0.00
12/04/2016 399.64 870992 147 80 159 0.00
12/05/2016 -- -- -- -- -- --
12/06/2016 -- -- -- -- -- --
12/07/2016 -- -- -- -- -- --

Later | Latest

Warning! This data is preliminary and subject to revision.

Show BER Map | Plot BER Data | 1 Month BER Data | Real-Time BER Data | BER Info